createdAt,value
2022-10-28T00:06:05.638Z,26.50
2022-10-28T00:08:32.577Z,24.80
2022-10-28T00:11:34.451Z,26.02
2022-10-28T00:14:22.632Z,28.77
2022-10-28T00:16:49.335Z,31.27
2022-10-28T00:19:16.357Z,25.83
2022-10-28T00:21:43.954Z,31.95
2022-10-28T00:24:12.115Z,27.65
2022-10-28T00:26:42.239Z,27.60
2022-10-28T01:04:06.799Z,22.10
2022-10-28T01:06:33.612Z,28.20
2022-10-28T01:09:00.431Z,25.15
2022-10-28T01:11:56.511Z,26.98
2022-10-28T01:15:00.727Z,26.02
2022-10-28T01:17:48.890Z,24.17
2022-10-28T01:21:08.564Z,25.77
2022-10-28T01:24:18.944Z,24.75
2022-10-28T01:27:07.335Z,25.50
2022-10-28T01:29:55.691Z,27.98
2022-10-28T01:32:34.429Z,24.70
2022-10-28T01:35:27.810Z,25.08
2022-10-28T04:11:01.246Z,33.53
2022-10-28T04:13:27.792Z,30.98
2022-10-28T04:15:54.329Z,38.00
2022-10-28T04:18:20.864Z,41.42
2022-10-28T04:20:47.415Z,40.75
2022-10-28T04:23:16.610Z,36.47
2022-10-28T04:25:43.144Z,40.75
2022-10-28T04:28:09.805Z,40.05
2022-10-28T04:30:36.349Z,39.38
2022-10-28T04:33:02.912Z,44.53
2022-10-28T04:35:29.464Z,44.92
2022-10-28T04:37:56.237Z,37.92
2022-10-28T04:40:22.964Z,42.15
2022-10-28T04:42:49.486Z,41.30
2022-10-28T04:45:16.133Z,39.25
2022-10-28T04:47:42.701Z,39.65
2022-10-28T04:50:09.399Z,39.70
2022-10-28T04:52:35.932Z,38.65
2022-10-28T04:55:02.527Z,39.90
2022-10-28T04:57:29.101Z,37.75
2022-10-28T04:59:55.628Z,37.58
2022-10-28T05:02:23.624Z,45.15
2022-10-28T05:04:50.270Z,38.97
2022-10-28T05:07:18.757Z,42.72
2022-10-28T05:09:48.026Z,42.45
2022-10-28T05:12:14.583Z,45.35
2022-10-28T05:14:41.114Z,44.78
2022-10-28T05:17:10.135Z,37.55
2022-10-28T05:19:36.728Z,44.30
2022-10-28T05:22:03.752Z,40.60
2022-10-28T05:24:30.270Z,38.20
2022-10-28T05:26:56.801Z,38.20
2022-10-28T05:29:23.414Z,41.92
2022-10-28T05:31:50.104Z,50.30
2022-10-28T05:34:16.670Z,38.55
2022-10-28T05:36:43.268Z,40.83
2022-10-28T05:39:09.909Z,37.47
2022-10-28T05:41:38.751Z,35.67
2022-10-28T05:44:05.990Z,38.67
2022-10-28T05:46:32.620Z,38.70
2022-10-28T05:48:59.177Z,36.80
2022-10-28T05:51:25.740Z,31.48
2022-10-28T05:53:52.400Z,34.97
2022-10-28T05:56:18.997Z,40.83
2022-10-28T05:58:45.634Z,37.35
2022-10-28T06:01:12.284Z,40.90
2022-10-28T06:03:38.915Z,35.42
2022-10-28T06:06:08.278Z,35.88
2022-10-28T06:08:34.862Z,33.72
2022-10-28T06:11:00.531Z,33.55
2022-10-28T06:13:27.064Z,35.17
2022-10-28T06:15:55.771Z,37.25
2022-10-28T06:18:23.079Z,31.85
2022-10-28T06:20:58.900Z,36.92
2022-10-28T06:23:27.209Z,30.33
2022-10-28T06:28:30.783Z,46.83
2022-10-28T06:31:05.597Z,34.60
2022-10-28T06:33:32.181Z,35.30
2022-10-28T06:35:59.661Z,34.35
2022-10-28T07:40:15.476Z,30.65
2022-10-28T07:42:43.034Z,31.73
2022-10-28T07:45:09.867Z,29.23
2022-10-28T07:47:36.514Z,33.67
2022-10-28T07:50:04.605Z,30.40
2022-10-28T07:52:31.333Z,30.33
2022-10-28T07:54:58.098Z,32.08
2022-10-28T08:08:55.173Z,29.87
2022-10-28T08:11:23.940Z,27.35
2022-10-28T08:13:52.098Z,25.90
2022-10-28T08:16:19.219Z,25.02
2022-10-28T08:18:48.915Z,25.45
2022-10-28T08:21:16.412Z,25.75
2022-10-28T08:23:46.872Z,25.52
2022-10-28T08:26:15.960Z,24.95
2022-10-28T10:04:54.134Z,22.20
2022-10-28T10:07:34.988Z,22.92
2022-10-28T10:26:16.300Z,20.33
2022-10-28T10:28:48.375Z,17.12
2022-10-28T10:31:29.831Z,18.85
2022-10-28T10:33:57.951Z,22.17
2022-10-28T10:36:31.623Z,22.00
2022-10-28T10:39:00.920Z,22.75
2022-10-28T11:45:51.220Z,20.42
2022-10-28T11:53:40.962Z,22.17
2022-10-28T11:56:19.612Z,25.65
2022-10-28T11:59:05.457Z,24.30
2022-10-28T12:01:40.314Z,21.67
2022-10-28T12:04:19.384Z,22.62
2022-10-28T12:07:06.889Z,23.50
2022-10-28T12:09:53.621Z,21.95
2022-10-28T12:20:24.496Z,21.30
2022-10-28T12:23:00.531Z,22.17
2022-10-28T12:25:31.417Z,23.92
2022-10-28T12:28:02.706Z,22.27
2022-10-28T12:30:36.239Z,26.92
2022-10-28T12:33:23.215Z,24.25
2022-10-28T12:36:29.585Z,23.15
2022-10-28T12:39:22.295Z,24.45
2022-10-28T12:51:38.158Z,22.33
2022-10-28T12:54:53.643Z,22.95
2022-10-28T12:57:23.230Z,24.27
2022-10-28T13:00:01.172Z,23.23
2022-10-28T13:02:55.937Z,25.77
2022-10-28T13:05:27.602Z,25.62
2022-10-28T13:08:19.371Z,21.80
2022-10-28T13:11:30.450Z,27.65
2022-10-28T13:14:21.203Z,26.62
2022-10-28T13:17:32.018Z,25.83
2022-10-28T13:20:35.952Z,29.73
2022-10-28T13:26:46.984Z,27.37
2022-10-28T13:29:41.613Z,34.45
2022-10-28T13:32:31.611Z,32.33
2022-10-28T13:35:09.575Z,31.12
2022-10-28T13:37:38.101Z,34.47
2022-10-28T13:40:05.278Z,30.25
2022-10-28T13:43:25.113Z,31.17
2022-10-28T13:48:29.795Z,31.70
2022-10-28T14:10:41.587Z,32.78
2022-10-28T14:27:55.863Z,30.48
2022-10-28T14:30:22.981Z,34.22
2022-10-28T14:32:49.548Z,33.80
2022-10-28T14:35:16.040Z,29.98
2022-10-28T14:38:00.962Z,29.35
2022-10-28T14:40:42.888Z,31.80
2022-10-28T14:52:26.918Z,32.13
2022-10-28T14:57:37.519Z,35.20
2022-10-28T15:02:52.590Z,32.38
2022-10-28T15:08:04.152Z,36.20
2022-10-28T15:10:38.318Z,40.50
2022-10-28T15:13:07.253Z,40.28
2022-10-28T15:15:37.324Z,35.72
2022-10-28T15:18:21.516Z,29.52
2022-10-28T15:20:48.222Z,28.30
2022-10-28T15:23:23.377Z,37.80
2022-10-28T15:26:12.835Z,37.05
2022-10-28T15:28:41.096Z,35.47
2022-10-28T15:31:08.823Z,32.03
2022-10-28T15:33:41.002Z,30.62
2022-10-28T15:36:17.792Z,29.27
2022-10-28T15:38:46.894Z,34.38
2022-10-28T15:41:22.863Z,36.22
2022-10-28T15:43:58.752Z,44.55
2022-10-28T15:46:26.273Z,51.30
2022-10-28T15:48:53.815Z,50.80
2022-10-28T15:51:21.532Z,44.25
2022-10-28T15:53:55.260Z,40.10
2022-10-28T15:56:25.376Z,37.65
2022-10-28T15:59:23.306Z,39.97
2022-10-28T16:01:50.171Z,39.30
2022-10-28T16:12:57.947Z,37.38
2022-10-28T16:15:24.516Z,33.58
2022-10-28T16:17:51.386Z,32.88
2022-10-28T16:20:22.011Z,36.42
2022-10-28T16:22:48.909Z,31.48
2022-10-28T16:25:18.034Z,40.40
2022-10-28T16:27:44.719Z,42.00
2022-10-28T16:30:11.705Z,38.40
2022-10-28T16:32:41.431Z,35.53
2022-10-28T16:35:22.990Z,33.97
2022-10-28T16:37:54.706Z,37.47
2022-10-28T16:40:49.892Z,35.72
2022-10-28T16:43:15.887Z,40.03
2022-10-28T16:45:42.394Z,36.50
2022-10-28T16:48:13.789Z,34.47
2022-10-28T16:50:42.956Z,30.40
2022-10-28T16:53:12.237Z,33.50
2022-10-28T16:55:38.832Z,40.53
2022-10-28T16:58:05.950Z,40.75
2022-10-28T17:00:32.726Z,37.10
2022-10-28T17:03:00.062Z,31.33
2022-10-28T17:05:26.677Z,34.85
2022-10-28T17:07:56.152Z,32.95
2022-10-28T17:10:23.606Z,36.60
2022-10-28T17:12:50.717Z,32.28
2022-10-28T17:15:17.975Z,33.70
2022-10-28T17:17:48.284Z,35.90
2022-10-28T17:20:14.936Z,35.60
2022-10-28T17:22:41.490Z,34.97
2022-10-28T17:25:09.233Z,37.65
2022-10-28T17:27:35.872Z,35.85
2022-10-28T17:30:09.405Z,30.08
2022-10-28T17:32:36.068Z,38.65
2022-10-28T17:35:02.695Z,37.38
2022-10-28T17:37:29.271Z,39.55
2022-10-28T17:39:57.093Z,41.78
2022-10-28T17:42:24.353Z,40.45
2022-10-28T17:44:53.634Z,45.20
2022-10-28T17:47:20.288Z,39.20
2022-10-28T17:49:46.880Z,41.92
2022-10-28T17:52:13.694Z,43.63
2022-10-28T17:54:40.279Z,43.28
2022-10-28T17:57:06.943Z,42.38
2022-10-28T18:02:35.676Z,45.38
2022-10-28T18:19:41.526Z,40.45
2022-10-28T18:25:10.248Z,38.55
2022-10-28T18:27:37.057Z,37.42
2022-10-28T18:30:03.895Z,42.70
2022-10-28T18:32:30.503Z,38.88
2022-10-28T18:34:57.164Z,40.12
2022-10-28T18:37:23.962Z,43.13
2022-10-28T18:39:50.535Z,36.80
2022-10-28T18:42:21.654Z,41.85
2022-10-28T18:44:48.643Z,41.80
2022-10-28T18:47:18.150Z,40.58
2022-10-28T18:49:45.717Z,45.00
2022-10-28T18:52:12.461Z,40.12
2022-10-28T18:54:39.210Z,40.40
2022-10-28T18:57:05.862Z,46.15
2022-10-28T18:59:32.490Z,44.20
2022-10-28T19:01:59.156Z,46.60
2022-10-28T19:04:25.931Z,48.40
2022-10-28T19:07:45.600Z,46.78
2022-10-28T19:10:37.283Z,47.88
2022-10-28T19:15:46.256Z,46.47
2022-10-28T19:24:13.609Z,43.58
2022-10-28T19:48:39.339Z,54.03
2022-10-28T20:20:39.529Z,52.62
2022-10-28T20:45:15.475Z,54.08
2022-10-28T20:47:42.100Z,54.65
2022-10-28T20:50:09.208Z,56.00
2022-10-28T20:52:35.747Z,59.63
2022-10-28T20:55:02.309Z,53.55
2022-10-28T20:57:28.857Z,53.83
2022-10-28T21:54:13.689Z,44.08
2022-10-28T21:56:40.306Z,37.78
2022-10-28T21:59:31.370Z,41.72
2022-10-28T22:01:58.215Z,42.33
2022-10-28T22:04:25.228Z,40.75
2022-10-28T22:06:51.804Z,44.35
2022-10-28T22:09:18.433Z,47.22
2022-10-28T22:11:45.056Z,42.65
2022-10-28T22:14:11.632Z,44.90
2022-10-28T22:16:38.297Z,43.33
2022-10-28T22:19:07.459Z,44.53
2022-10-28T22:21:40.122Z,42.20
2022-10-28T22:24:07.500Z,43.85
2022-10-28T22:26:34.299Z,41.28
2022-10-28T22:29:22.871Z,43.95
2022-10-28T22:31:49.512Z,43.50
2022-10-28T22:34:16.237Z,45.85
2022-10-28T22:36:44.926Z,43.33
2022-10-28T22:43:30.479Z,42.83
2022-10-28T22:48:38.669Z,49.42
2022-10-28T22:51:05.414Z,49.38
2022-10-28T22:53:32.005Z,45.47
2022-10-28T22:55:58.778Z,46.67
2022-10-28T22:58:27.230Z,49.95
2022-10-28T23:00:53.813Z,52.03
2022-10-28T23:03:20.365Z,51.85
2022-10-28T23:05:46.971Z,49.83
2022-10-28T23:08:15.828Z,48.60
2022-10-28T23:10:42.578Z,54.10
2022-10-28T23:13:12.747Z,43.53
2022-10-28T23:15:39.351Z,47.00
2022-10-28T23:18:05.935Z,46.50
2022-10-28T23:20:32.467Z,51.20
2022-10-28T23:22:59.018Z,44.20
2022-10-28T23:25:25.527Z,41.00
2022-10-28T23:27:52.463Z,37.13
2022-10-28T23:30:19.233Z,42.67
2022-10-28T23:32:45.794Z,42.62
2022-10-28T23:35:12.372Z,41.30
2022-10-28T23:37:38.925Z,40.40
2022-10-28T23:40:06.066Z,45.88
2022-10-28T23:42:32.671Z,49.40
2022-10-28T23:44:59.201Z,40.75
2022-10-28T23:47:25.760Z,44.85
2022-10-28T23:49:52.966Z,46.22
2022-10-28T23:52:19.524Z,45.60
2022-10-28T23:54:46.074Z,46.67
2022-10-28T23:57:12.883Z,48.38
